Time;durP1;ratioP1;P1;durP2;ratioP2;P2;SDS_P1;SDS_P2;PMS_P1;PMS_P2;Temp;Humidity;BMP_temperature;BMP_pressure;BME280_temperature;BME280_humidity;BME280_pressure;Samples;Min_cycle;Max_cycle;Signal;HPM_P1;HPM_P2
2024/01/25 00:01:33;;;;;;;21.33;4.13;;;;;;;10.38;82.98;100404.78;7219289;40;20242;31
2024/01/25 00:07:09;;;;;;;18.30;4.10;;;;;;;10.39;83.37;100403.81;7198870;40;20246;31
2024/01/25 00:12:30;;;;;;;19.47;4.90;;;;;;;10.38;83.73;100399.37;7183850;40;20368;31
2024/01/25 00:18:06;;;;;;;25.40;5.23;;;;;;;10.34;83.24;100393.44;7238294;40;20272;31
2024/01/25 00:23:25;;;;;;;17.45;5.15;;;;;;;10.38;83.86;100396.69;7253055;39;21261;31
2024/01/25 00:34:05;;;;;;;15.90;4.45;;;;;;;10.36;83.37;100387.88;7266454;39;20409;31
2024/01/25 00:39:26;;;;;;;17.45;5.25;;;;;;;10.40;83.40;100382.09;7292304;39;20357;31
2024/01/25 00:44:48;;;;;;;19.50;4.70;;;;;;;10.38;83.85;100386.78;7311693;39;20372;31
2024/01/25 00:50:26;;;;;;;17.90;4.05;;;;;;;10.34;83.33;100385.34;7297543;39;20569;31
2024/01/25 00:55:46;;;;;;;16.10;4.00;;;;;;;10.35;83.43;100386.19;7310033;39;20373;31
2024/01/25 01:01:23;;;;;;;24.00;4.47;;;;;;;10.31;83.76;100387.47;7251004;40;20248;31
2024/01/25 01:12:03;;;;;;;18.70;4.73;;;;;;;10.27;83.69;100386.84;7256381;40;20713;31
2024/01/25 01:17:39;;;;;;;19.00;4.67;;;;;;;10.25;83.61;100388.00;7216267;40;20239;31
2024/01/25 01:23:00;;;;;;;31.67;5.30;;;;;;;10.28;83.89;100391.25;7229305;40;20262;31
2024/01/25 01:28:35;;;;;;;22.85;3.95;;;;;;;10.25;83.64;100386.16;7295881;39;20299;31
2024/01/25 01:34:12;;;;;;;19.10;4.60;;;;;;;10.30;83.46;100396.53;7242705;39;20372;31
2024/01/25 01:39:45;;;;;;;16.58;3.84;;;;;;;10.22;83.57;100393.66;7012914;40;21444;31
2024/01/25 01:45:22;;;;;;;18.20;4.50;;;;;;;10.20;83.26;100390.22;7258536;40;20326;31
2024/01/25 01:50:58;;;;;;;18.43;4.67;;;;;;;10.20;83.06;100393.78;7244697;40;20256;31
2024/01/25 01:56:34;;;;;;;22.33;4.83;;;;;;;10.17;82.80;100383.28;7235555;40;20244;31
2024/01/25 02:02:09;;;;;;;19.77;4.73;;;;;;;10.15;83.51;100398.72;7265512;40;20237;31
2024/01/25 02:07:44;;;;;;;23.93;4.73;;;;;;;10.14;83.14;100409.59;7267412;39;20271;31
2024/01/25 02:13:06;;;;;;;20.07;4.70;;;;;;;10.19;82.99;100413.63;7249674;40;20269;31
2024/01/25 02:18:44;;;;;;;24.17;5.47;;;;;;;10.14;82.87;100412.28;7302688;39;20252;31
2024/01/25 02:24:20;;;;;;;15.55;4.50;;;;;;;10.16;83.62;100407.66;7317140;39;20367;31
2024/01/25 02:29:42;;;;;;;22.75;4.57;;;;;;;10.15;83.66;100412.19;7327012;39;21233;31
2024/01/25 02:35:02;;;;;;;16.10;4.20;;;;;;;10.15;83.68;100412.19;7328906;39;20376;31
2024/01/25 02:40:38;;;;;;;20.40;4.25;;;;;;;10.13;83.60;100410.59;7369237;39;20335;31
2024/01/25 02:46:13;;;;;;;23.00;4.87;;;;;;;10.10;83.87;100406.31;7325445;39;20320;31
2024/01/25 02:51:47;;;;;;;22.50;4.80;;;;;;;10.11;83.51;100412.56;7318623;39;20255;31
2024/01/25 02:57:23;;;;;;;25.13;4.77;;;;;;;10.06;83.46;100402.19;7262086;39;20353;31
2024/01/25 03:03:13;;;;;;;19.70;4.07;;;;;;;10.05;82.78;100405.03;7275953;39;20236;31
2024/01/25 03:08:48;;;;;;;21.67;5.17;;;;;;;10.02;83.29;100402.56;7316745;39;20236;31
2024/01/25 03:14:24;;;;;;;19.60;4.50;;;;;;;9.96;83.22;100399.44;7284036;39;20350;31
2024/01/25 03:19:44;;;;;;;22.73;4.73;;;;;;;9.99;83.16;100413.63;7211396;40;20261;31
2024/01/25 03:25:19;;;;;;;17.55;4.50;;;;;;;9.95;82.85;100416.59;7227830;40;20241;31
2024/01/25 03:30:56;;;;;;;19.55;4.05;;;;;;;9.92;82.70;100424.91;7198973;40;20506;31
2024/01/25 03:36:31;;;;;;;21.60;5.00;;;;;;;9.93;83.01;100434.72;7189996;40;20454;31
2024/01/25 03:42:06;;;;;;;16.40;4.30;;;;;;;9.98;82.52;100449.63;7309406;39;20246;31
2024/01/25 03:47:42;;;;;;;25.70;4.80;;;;;;;9.93;82.77;100440.09;7296932;39;20268;31
2024/01/25 03:53:03;;;;;;;17.93;4.27;;;;;;;9.94;82.83;100449.03;7254559;40;20257;31
2024/01/25 03:58:37;;;;;;;19.65;4.60;;;;;;;9.90;82.03;100456.53;7236839;40;20343;31
2024/01/25 04:04:16;;;;;;;19.30;4.35;;;;;;;9.88;82.30;100454.94;7276722;39;20257;31
2024/01/25 04:14:40;;;;;;;26.43;4.77;;;;;;;9.86;82.40;100467.69;7282900;39;20770;31
2024/01/25 04:20:18;;;;;;;21.30;4.60;;;;;;;9.81;82.20;100459.16;7278006;40;20241;31
2024/01/25 04:25:55;;;;;;;23.53;5.00;;;;;;;9.76;81.79;100473.00;7224768;40;20261;31
2024/01/25 04:36:36;;;;;;;19.25;4.55;;;;;;;9.67;82.07;100484.53;7278061;40;20365;31
2024/01/25 04:47:27;;;;;;;23.36;5.24;;;;;;;9.56;81.96;100498.06;7282255;39;21259;31
2024/01/25 04:58:08;;;;;;;21.40;4.60;;;;;;;9.48;82.56;100508.59;7338094;39;20852;31
2024/01/25 05:08:48;;;;;;;20.70;4.60;;;;;;;9.46;82.69;100516.81;7329857;39;20256;31
2024/01/25 05:14:26;;;;;;;24.93;4.73;;;;;;;9.41;82.56;100524.41;7303041;39;20243;31
2024/01/25 05:19:44;;;;;;;23.10;4.40;;;;;;;9.41;82.46;100528.94;7233624;40;20286;31
2024/01/25 05:25:19;;;;;;;21.30;4.40;;;;;;;9.35;82.77;100529.41;7281457;40;20255;31
2024/01/25 05:30:55;;;;;;;22.33;4.63;;;;;;;9.25;82.68;100528.50;7266797;39;21403;31
2024/01/25 05:36:30;;;;;;;18.30;4.25;;;;;;;9.23;82.87;100525.91;7293703;39;21399;31
2024/01/25 05:42:05;;;;;;;25.90;4.70;;;;;;;9.21;83.05;100537.78;7301717;39;20317;31
2024/01/25 05:47:42;;;;;;;21.35;5.25;;;;;;;9.18;83.40;100543.41;7279344;40;20257;31
2024/01/25 05:53:19;;;;;;;24.60;5.00;;;;;;;9.19;83.41;100545.13;7313519;39;20370;31
2024/01/25 05:58:38;;;;;;;16.90;4.30;;;;;;;9.11;82.90;100547.59;7272870;39;20477;31
2024/01/25 06:04:26;;;;;;;22.20;4.63;;;;;;;9.01;83.33;100556.38;7295575;39;20363;31
2024/01/25 06:15:07;;;;;;;21.07;4.87;;;;;;;8.92;83.41;100558.94;7262278;40;20732;31
2024/01/25 06:20:39;;;;;;;17.15;3.85;;;;;;;8.75;82.37;100559.44;7277753;39;20268;31
2024/01/25 06:31:18;;;;;;;19.90;4.60;;;;;;;8.62;83.49;100548.81;7316874;39;20278;31
2024/01/25 06:36:54;;;;;;;19.60;4.20;;;;;;;8.51;83.61;100548.81;7318279;39;20400;31
2024/01/25 06:42:29;;;;;;;22.50;5.50;;;;;;;8.50;84.59;100544.41;7332777;39;20264;31
2024/01/25 06:53:08;;;;;;;25.40;5.80;;;;;;;8.59;84.83;100555.31;7358616;39;21382;31
2024/01/25 06:58:44;;;;;;;20.97;5.20;;;;;;;8.61;85.03;100557.84;7370000;39;20342;31
2024/01/25 07:04:19;;;;;;;28.27;4.90;;;;;;;8.60;85.08;100545.37;7279423;39;20253;31
2024/01/25 07:09:56;;;;;;;24.80;5.30;;;;;;;8.60;85.67;100540.00;7260993;40;20265;31
2024/01/25 07:15:32;;;;;;;23.43;5.57;;;;;;;8.63;85.36;100526.34;7238753;40;20404;31
2024/01/25 07:20:53;;;;;;;21.60;4.93;;;;;;;8.58;86.20;100517.78;7201596;40;20348;31
2024/01/25 07:26:43;;;;;;;;;;;;;;;;;;;;;
2024/01/25 07:31:55;;;;;;;26.80;5.63;;;;;;;8.53;87.00;100519.97;7165749;40;20356;31
2024/01/25 07:37:26;;;;;;;23.70;4.70;;;;;;;8.57;87.62;100522.31;7264524;39;20287;31
2024/01/25 07:43:02;;;;;;;24.70;5.15;;;;;;;8.54;87.68;100517.19;7253538;40;20347;31
2024/01/25 07:48:20;;;;;;;19.85;4.50;;;;;;;8.61;87.05;100525.59;7243504;40;20278;31
2024/01/25 07:53:55;;;;;;;25.50;4.70;;;;;;;8.60;87.57;100511.31;7235374;39;20399;31
2024/01/25 08:04:36;;;;;;;27.93;5.83;;;;;;;8.73;87.33;100532.69;7250480;40;21288;31
2024/01/25 08:09:58;;;;;;;18.50;4.80;;;;;;;8.80;87.55;100541.13;7278232;39;21336;31
2024/01/25 08:15:18;;;;;;;21.55;5.30;;;;;;;8.84;87.23;100550.66;7269213;39;20314;31
2024/01/25 08:20:54;;;;;;;22.70;5.80;;;;;;;8.84;87.41;100550.66;7321222;39;20396;31
2024/01/25 08:26:29;;;;;;;27.10;5.35;;;;;;;8.92;87.12;100558.94;7288128;39;20260;31
2024/01/25 08:31:50;;;;;;;25.03;5.10;;;;;;;8.95;87.19;100561.41;7276036;40;20264;31
2024/01/25 08:37:23;;;;;;;28.30;5.56;;;;;;;9.02;87.13;100568.00;7105203;39;21242;31
2024/01/25 08:42:44;;;;;;;23.50;5.50;;;;;;;9.14;87.25;100575.06;7272218;39;20248;31
2024/01/25 08:48:19;;;;;;;21.10;5.30;;;;;;;9.21;87.03;100548.56;7328886;39;20279;31
2024/01/25 08:58:56;;;;;;;22.70;5.40;;;;;;;9.40;86.64;100562.19;7339940;39;20258;31
2024/01/25 09:04:16;;;;;;;29.60;5.90;;;;;;;9.52;86.78;100558.53;7360680;39;20236;31
2024/01/25 09:09:37;;;;;;;27.63;6.27;;;;;;;9.58;86.64;100565.22;7357919;39;20257;31
2024/01/25 09:15:11;;;;;;;23.60;6.20;;;;;;;9.62;86.13;100580.97;7344573;39;21128;31
2024/01/25 09:20:29;;;;;;;26.30;5.50;;;;;;;9.75;85.71;100589.75;7324949;39;20354;31
2024/01/25 09:26:01;;;;;;;22.63;5.70;;;;;;;9.76;85.28;100577.16;7337623;39;20478;31
2024/01/25 09:31:37;;;;;;;28.47;6.37;;;;;;;9.72;84.93;100573.88;7309566;39;20268;31
2024/01/25 09:36:57;;;;;;;21.80;5.80;;;;;;;9.80;85.79;100567.84;7299884;40;20349;31
2024/01/25 09:42:32;;;;;;;19.63;5.07;;;;;;;9.83;84.39;100563.03;7288711;39;20230;31
2024/01/25 09:48:09;;;;;;;17.85;4.95;;;;;;;9.94;84.51;100578.31;7230064;40;20343;31
2024/01/25 09:53:44;;;;;;;21.97;4.80;;;;;;;10.04;83.72;100583.78;7238185;40;20262;31
2024/01/25 09:59:19;;;;;;;21.10;4.83;;;;;;;10.14;83.25;100580.16;7250009;40;20273;31
2024/01/25 10:04:55;;;;;;;25.57;6.00;;;;;;;10.22;83.40;100593.03;7246117;40;20241;31
2024/01/25 10:10:15;;;;;;;19.10;4.90;;;;;;;10.37;82.87;100591.72;7245227;40;20261;31
2024/01/25 10:20:56;;;;;;;24.37;6.03;;;;;;;10.44;82.01;100583.97;7338175;39;20290;31
2024/01/25 10:26:43;;;;;;;20.45;5.70;;;;;;;10.55;82.03;100579.37;7328483;39;20584;31
2024/01/25 10:32:18;;;;;;;16.65;4.70;;;;;;;10.69;80.59;100564.69;7367200;39;20497;31
2024/01/25 10:43:10;;;;;;;19.80;4.70;;;;;;;10.90;80.75;100580.81;7350969;39;20254;31
2024/01/25 10:53:49;;;;;;;28.60;10.50;;;;;;;11.03;79.40;100576.06;7276201;39;21234;31
2024/01/25 10:59:27;;;;;;;21.70;7.50;;;;;;;11.09;78.83;100562.87;7243321;40;20362;31
2024/01/25 11:05:08;;;;;;;33.60;12.20;;;;;;;11.15;78.83;100572.25;7258441;39;20241;31
2024/01/25 11:10:44;;;;;;;44.60;15.80;;;;;;;11.23;78.67;100559.78;7233727;40;20246;31
2024/01/25 11:16:31;;;;;;;27.17;9.87;;;;;;;11.19;76.79;100571.00;7228202;40;20321;31
2024/01/25 11:22:05;;;;;;;50.93;22.83;;;;;;;11.29;77.17;100563.78;7248409;40;20252;31
2024/01/25 11:27:40;;;;;;;41.05;16.25;;;;;;;11.32;76.75;100560.81;7287678;39;20241;31
2024/01/25 11:38:19;;;;;;;23.93;8.83;;;;;;;11.35;75.79;100552.44;7351774;39;20279;31
2024/01/25 11:43:55;;;;;;;19.10;7.20;;;;;;;11.38;75.35;100552.16;7305984;39;20244;31
2024/01/25 11:49:15;;;;;;;15.80;4.70;;;;;;;11.50;74.79;100531.28;7307131;39;20276;31
2024/01/25 11:54:51;;;;;;;12.77;5.13;;;;;;;11.45;74.13;100511.97;7360272;39;20244;31
2024/01/25 12:00:23;;;;;;;13.27;4.17;;;;;;;11.57;73.89;100510.84;7299426;39;20472;31
2024/01/25 12:05:59;;;;;;;15.07;4.17;;;;;;;11.59;74.07;100493.50;7258834;39;20333;31
2024/01/25 12:11:35;;;;;;;20.60;4.50;;;;;;;11.66;73.80;100480.31;7279631;39;20256;31
2024/01/25 12:17:11;;;;;;;15.30;4.87;;;;;;;11.71;73.07;100468.09;7231186;40;20261;31
2024/01/25 12:22:32;;;;;;;15.90;5.00;;;;;;;11.67;72.43;100472.03;7238601;39;20242;31
2024/01/25 12:28:08;;;;;;;18.40;4.70;;;;;;;11.66;73.34;100486.56;7300752;39;20237;31
2024/01/25 12:33:26;;;;;;;15.57;4.57;;;;;;;11.74;72.49;100467.81;7314527;39;20633;31
2024/01/25 12:38:48;;;;;;;17.25;4.50;;;;;;;11.71;73.31;100459.12;7296966;39;20391;31
2024/01/25 12:44:22;;;;;;;15.70;4.70;;;;;;;11.62;72.24;100444.63;7252482;39;20288;31
2024/01/25 12:49:57;;;;;;;16.00;4.20;;;;;;;11.56;72.71;100437.09;7276963;39;20257;31
2024/01/25 12:55:33;;;;;;;14.17;4.43;;;;;;;11.64;73.62;100433.66;7237872;40;20276;31
2024/01/25 13:01:08;;;;;;;15.67;4.17;;;;;;;11.62;72.51;100438.38;7216034;40;20249;31
2024/01/25 13:06:44;;;;;;;15.95;4.15;;;;;;;11.60;72.17;100422.31;7168296;40;20242;31
2024/01/25 13:12:20;;;;;;;13.20;3.67;;;;;;;11.66;72.23;100429.84;7161923;40;20431;31
2024/01/25 13:23:02;;;;;;;13.56;3.78;;;;;;;11.71;72.13;100418.62;7247979;39;20757;31
2024/01/25 13:33:25;;;;;;;16.05;3.35;;;;;;;11.67;72.50;100418.03;7310539;39;20284;31
2024/01/25 13:44:03;;;;;;;16.80;4.00;;;;;;;11.62;72.83;100398.72;7332915;39;20274;31
2024/01/25 13:49:24;;;;;;;13.00;3.33;;;;;;;11.62;72.40;100396.03;7320682;39;20410;31
2024/01/25 13:54:44;;;;;;;10.87;3.30;;;;;;;11.59;73.40;100395.44;7290823;39;20317;31
2024/01/25 14:00:21;;;;;;;13.95;3.35;;;;;;;11.53;73.16;100394.19;7301009;39;20243;31
2024/01/25 14:05:39;;;;;;;15.20;4.10;;;;;;;11.44;72.62;100381.53;7270044;39;20338;31
2024/01/25 14:10:59;;;;;;;14.70;3.90;;;;;;;11.43;72.93;100381.69;7337930;39;20264;31
2024/01/25 14:16:34;;;;;;;15.05;3.45;;;;;;;11.42;74.11;100386.22;7345816;39;21115;31
2024/01/25 14:21:56;;;;;;;18.23;4.40;;;;;;;11.47;73.89;100373.16;7321735;39;20336;31
2024/01/25 14:27:30;;;;;;;14.85;3.40;;;;;;;11.42;74.25;100375.41;7331909;39;20497;31
2024/01/25 14:33:06;;;;;;;11.77;4.33;;;;;;;11.41;74.79;100368.31;7322198;39;20373;31
2024/01/25 14:38:41;;;;;;;14.60;4.60;;;;;;;11.42;75.19;100371.88;7297659;39;20324;31
2024/01/25 14:44:16;;;;;;;15.53;4.93;;;;;;;11.41;75.10;100375.59;7296560;39;20372;31
2024/01/25 14:49:53;;;;;;;15.75;4.25;;;;;;;11.32;74.92;100369.16;7235975;40;20331;31
2024/01/25 15:00:34;;;;;;;15.83;4.23;;;;;;;11.29;76.21;100369.47;7273103;39;20279;31
2024/01/25 15:06:08;;;;;;;14.32;4.12;;;;;;;11.21;76.29;100361.22;7269567;39;21415;31
2024/01/25 15:16:35;;;;;;;16.30;5.43;;;;;;;11.27;77.11;100357.97;7318669;39;20260;31
2024/01/25 15:22:07;;;;;;;16.90;6.57;;;;;;;11.19;77.53;100353.25;7315927;39;21331;31
2024/01/25 15:27:27;;;;;;;34.47;16.00;;;;;;;11.14;78.05;100360.97;7346323;39;20244;31
2024/01/25 15:32:47;;;;;;;11.78;4.74;;;;;;;11.14;78.78;100360.97;7340429;39;20264;31
2024/01/25 15:38:19;;;;;;;13.97;5.00;;;;;;;11.11;78.58;100347.72;7146874;39;21173;31
2024/01/25 15:43:54;;;;;;;11.20;4.10;;;;;;;11.05;79.95;100334.81;7343873;39;20255;31
2024/01/25 15:49:15;;;;;;;77.05;42.00;;;;;;;10.96;80.40;100335.66;7300242;39;20242;31
2024/01/25 15:54:50;;;;;;;18.20;7.55;;;;;;;10.78;83.41;100349.00;7300744;39;20360;31
2024/01/25 16:00:27;;;;;;;9.40;5.05;;;;;;;10.64;86.30;100346.69;7207867;40;20319;31
2024/01/25 16:05:47;;;;;;;11.47;5.10;;;;;;;10.69;86.13;100354.38;7196261;40;20245;31
2024/01/25 16:11:23;;;;;;;11.35;4.40;;;;;;;10.55;87.72;100342.13;7179364;40;20358;31
2024/01/25 16:16:58;;;;;;;21.20;10.43;;;;;;;10.47;89.21;100335.72;7203400;40;20260;31
2024/01/25 16:22:18;;;;;;;11.10;5.25;;;;;;;10.43;90.55;100342.37;7256273;40;20242;31
2024/01/25 16:27:54;;;;;;;11.70;4.23;;;;;;;10.39;90.69;100331.03;7236676;40;20266;31
2024/01/25 16:33:30;;;;;;;8.70;4.35;;;;;;;10.43;91.50;100331.59;7248874;39;20305;31
2024/01/25 16:39:05;;;;;;;12.10;4.90;;;;;;;10.42;91.12;100333.44;7263215;39;20375;31
2024/01/25 16:44:42;;;;;;;9.60;5.90;;;;;;;10.44;91.09;100323.38;7267855;40;20258;31
2024/01/25 16:50:17;;;;;;;7.65;4.65;;;;;;;10.42;90.70;100321.81;7284875;39;20263;31
2024/01/25 17:00:58;;;;;;;18.27;10.93;;;;;;;10.40;91.64;100327.31;7262803;40;20273;31
2024/01/25 17:11:24;;;;;;;18.40;12.05;;;;;;;10.55;90.54;100335.87;7370241;39;21302;31
2024/01/25 17:22:01;;;;;;;13.87;10.67;;;;;;;10.43;91.62;100332.47;7380359;39;21350;31
2024/01/25 17:32:37;;;;;;;8.17;6.77;;;;;;;10.31;92.63;100326.31;7360764;39;21411;31
2024/01/25 17:38:13;;;;;;;13.75;10.18;;;;;;;10.31;92.57;100322.78;7338300;39;20278;31
2024/01/25 17:43:48;;;;;;;15.65;13.50;;;;;;;10.35;92.31;100318.81;7225926;40;20265;31
2024/01/25 17:49:24;;;;;;;9.77;7.80;;;;;;;10.41;92.44;100312.88;7217996;40;20331;31
2024/01/25 17:55:01;;;;;;;9.37;6.87;;;;;;;10.42;92.42;100313.72;7219823;40;20274;31
2024/01/25 18:00:36;;;;;;;8.70;6.30;;;;;;;10.40;92.36;100316.53;7216533;40;20259;31
2024/01/25 18:05:56;;;;;;;8.07;6.30;;;;;;;10.45;92.37;100313.44;7223238;40;20339;31
2024/01/25 18:11:32;;;;;;;8.50;6.70;;;;;;;10.41;91.98;100307.47;7259552;39;20236;31
2024/01/25 18:16:52;;;;;;;8.00;5.00;;;;;;;10.38;92.26;100319.41;7245959;40;20262;31
2024/01/25 18:22:27;;;;;;;8.23;5.37;;;;;;;10.29;93.45;100312.13;7216502;40;20376;31
2024/01/25 18:28:03;;;;;;;7.80;6.97;;;;;;;10.21;93.57;100301.19;7239139;39;20281;31
2024/01/25 18:33:38;;;;;;;10.33;7.67;;;;;;;10.18;94.21;100297.94;7196781;40;20256;31
2024/01/25 18:38:58;;;;;;;11.30;7.53;;;;;;;10.25;93.17;100282.91;7227214;40;21334;31
2024/01/25 18:44:35;;;;;;;11.00;8.00;;;;;;;10.28;93.33;100278.09;7218460;40;20425;31
2024/01/25 18:50:10;;;;;;;7.00;6.30;;;;;;;10.27;93.00;100276.38;7224929;40;20238;31
2024/01/25 18:55:45;;;;;;;6.77;5.57;;;;;;;10.22;93.14;100285.88;7255194;39;20320;31
2024/01/25 19:01:22;;;;;;;11.30;7.75;;;;;;;10.14;93.42;100283.81;7257656;40;20294;31
2024/01/25 19:06:58;;;;;;;7.90;7.05;;;;;;;10.11;93.84;100288.63;7284951;39;20278;31
2024/01/25 19:12:18;;;;;;;9.10;7.20;;;;;;;10.07;94.55;100296.16;7237903;40;20376;31
2024/01/25 19:17:54;;;;;;;11.10;8.50;;;;;;;10.01;94.59;100295.81;7249197;40;20231;31
2024/01/25 19:28:34;;;;;;;12.57;9.93;;;;;;;10.05;95.04;100281.94;7309688;39;20316;31
2024/01/25 19:34:10;;;;;;;11.00;9.70;;;;;;;10.08;94.40;100279.00;7310514;39;20409;31
2024/01/25 19:39:30;;;;;;;12.00;9.10;;;;;;;10.10;94.75;100289.62;7274972;40;20261;31
2024/01/25 19:45:05;;;;;;;11.30;9.40;;;;;;;10.04;95.16;100288.34;7280551;39;20242;31
2024/01/25 19:50:41;;;;;;;10.77;8.43;;;;;;;10.04;95.27;100284.81;7285743;39;20246;31
2024/01/25 19:56:16;;;;;;;11.20;9.40;;;;;;;10.01;96.01;100283.22;7239973;40;20266;31
2024/01/25 20:01:50;;;;;;;11.20;8.00;;;;;;;10.03;96.21;100291.16;7271171;39;20249;31
2024/01/25 20:07:26;;;;;;;11.80;9.40;;;;;;;10.05;95.97;100281.13;7290477;39;20245;31
2024/01/25 20:13:01;;;;;;;9.03;7.60;;;;;;;10.06;95.31;100280.09;7295684;39;20378;31
2024/01/25 20:18:36;;;;;;;8.85;7.45;;;;;;;10.06;95.65;100282.81;7303167;40;20264;31
2024/01/25 20:24:12;;;;;;;9.28;7.28;;;;;;;10.04;95.92;100285.66;7338377;39;20686;31
2024/01/25 20:29:48;;;;;;;11.30;9.10;;;;;;;10.08;95.68;100286.22;7308788;39;20265;31
2024/01/25 20:40:27;;;;;;;10.63;8.53;;;;;;;10.05;96.18;100284.63;7298247;39;20271;31
2024/01/25 20:46:02;;;;;;;12.82;8.70;;;;;;;10.08;95.40;100286.22;7317902;39;20261;31
2024/01/25 20:56:42;;;;;;;12.80;9.50;;;;;;;9.91;96.83;100280.50;7316228;39;20272;31
2024/01/25 21:02:04;;;;;;;15.50;10.23;;;;;;;9.85;98.01;100289.13;7252761;40;20371;31
2024/01/25 21:07:40;;;;;;;15.97;10.00;;;;;;;9.78;98.54;100268.25;7313910;39;20256;31
2024/01/25 21:13:16;;;;;;;14.07;10.43;;;;;;;9.80;98.07;100271.66;7299425;39;20341;31
2024/01/25 21:18:39;;;;;;;19.90;11.63;;;;;;;9.82;98.61;100253.53;7285710;40;20241;31
2024/01/25 21:24:14;;;;;;;17.90;11.70;;;;;;;9.81;98.23;100243.75;7283218;40;20349;31
2024/01/25 21:29:50;;;;;;;20.25;11.95;;;;;;;9.82;98.35;100234.69;7199272;40;20380;31
2024/01/25 21:35:25;;;;;;;21.95;12.90;;;;;;;9.82;98.11;100245.47;7232419;40;20276;31
2024/01/25 21:46:03;;;;;;;17.80;12.10;;;;;;;9.80;98.05;100237.50;7275960;39;21384;31
2024/01/25 21:51:39;;;;;;;15.15;10.70;;;;;;;9.80;98.70;100234.81;7280409;40;20327;31
2024/01/25 21:57:15;;;;;;;11.60;9.03;;;;;;;9.82;99.29;100235.53;7236371;40;20436;31
2024/01/25 22:02:51;;;;;;;14.50;9.25;;;;;;;9.87;99.30;100232.44;7214432;40;20261;31
2024/01/25 22:08:26;;;;;;;12.83;9.13;;;;;;;9.92;98.92;100227.47;7210091;40;20246;31
2024/01/25 22:14:01;;;;;;;13.40;8.65;;;;;;;9.91;99.43;100233.87;7176038;40;20262;31
2024/01/25 22:24:40;;;;;;;9.34;6.34;;;;;;;9.93;99.71;100232.72;7025986;40;21181;31
2024/01/25 22:30:16;;;;;;;8.90;6.30;;;;;;;10.01;99.66;100232.03;7255215;40;20265;31
2024/01/25 22:35:52;;;;;;;9.07;6.10;;;;;;;10.09;99.34;100242.97;7228228;40;20261;31
2024/01/25 22:41:26;;;;;;;9.43;6.90;;;;;;;10.08;99.12;100246.69;7298083;39;20347;31
2024/01/25 22:46:49;;;;;;;8.80;6.83;;;;;;;10.11;99.25;100246.38;7250491;40;20270;31
2024/01/25 22:52:23;;;;;;;12.20;7.90;;;;;;;10.10;99.24;100251.91;7225890;40;20316;31
2024/01/25 22:57:59;;;;;;;15.65;9.50;;;;;;;10.06;99.13;100253.16;7261103;40;20367;31
2024/01/25 23:03:34;;;;;;;15.90;11.23;;;;;;;10.05;100.00;100254.19;7273658;39;20227;31
2024/01/25 23:09:09;;;;;;;17.87;12.17;;;;;;;10.02;100.00;100257.13;7246161;40;20258;31
2024/01/25 23:14:45;;;;;;;19.70;12.70;;;;;;;10.07;100.00;100254.88;7267061;40;20238;31
2024/01/25 23:20:07;;;;;;;18.77;12.20;;;;;;;10.11;100.00;100267.09;7265781;40;20268;31
2024/01/25 23:25:43;;;;;;;21.90;14.30;;;;;;;10.13;100.00;100249.81;7296765;39;20240;31
2024/01/25 23:31:20;;;;;;;38.15;24.60;;;;;;;10.14;99.95;100247.94;7320520;39;20471;31
2024/01/25 23:36:55;;;;;;;23.87;14.80;;;;;;;10.16;100.00;100248.72;7269413;39;20245;31
2024/01/25 23:42:31;;;;;;;23.03;15.07;;;;;;;10.17;99.31;100245.88;7246330;40;20276;31
2024/01/25 23:53:09;;;;;;;34.40;23.70;;;;;;;10.16;100.00;100243.31;7266540;40;21334;31
